Time;durP1;ratioP1;P1;durP2;ratioP2;P2;SDS_P1;SDS_P2;PMS_P1;PMS_P2;Temp;Humidity;BMP_temperature;BMP_pressure;BME280_temperature;BME280_humidity;BME280_pressure;Samples;Min_cycle;Max_cycle;Signal;HPM_P1;HPM_P2
2022/10/14 00:00:18;;;;;;;;;12.50;7.75;;;;;;;;4982374;28;62748;-81
2022/10/14 00:02:44;;;;;;;;;8.00;8.00;;;;;;;;4983514;28;62047;-80
2022/10/14 00:05:09;;;;;;;;;10.75;8.00;;;;;;;;5002648;28;61804;-81
2022/10/14 00:07:35;;;;;;;;;8.00;7.00;;;;;;;;5001711;28;61912;-81
2022/10/14 00:10:00;;;;;;;;;10.25;7.50;;;;;;;;5001863;28;62961;-81
2022/10/14 00:12:27;;;;;;;;;9.75;8.75;;;;;;;;5001097;28;61709;-81
2022/10/14 00:14:52;;;;;;;;;8.50;6.75;;;;;;;;5002557;28;61936;-81
2022/10/14 00:17:18;;;;;;;;;8.25;8.25;;;;;;;;5002577;28;61687;-81
2022/10/14 00:19:43;;;;;;;;;11.75;7.00;;;;;;;;5000519;28;61804;-81
2022/10/14 00:22:08;;;;;;;;;8.50;7.25;;;;;;;;5002511;28;61682;-81
2022/10/14 00:24:34;;;;;;;;;11.25;7.00;;;;;;;;5000999;28;62010;-81
2022/10/14 00:26:59;;;;;;;;;6.75;5.50;;;;;;;;5001071;28;61780;-81
2022/10/14 00:29:24;;;;;;;;;10.25;7.25;;;;;;;;5001798;28;61773;-81
2022/10/14 00:31:50;;;;;;;;;7.50;6.75;;;;;;;;5002127;28;62133;-80
2022/10/14 00:34:16;;;;;;;;;6.00;6.00;;;;;;;;5001271;28;61905;-81
2022/10/14 00:36:42;;;;;;;;;5.00;5.00;;;;;;;;5001270;28;61940;-81
2022/10/14 00:39:07;;;;;;;;;4.25;3.75;;;;;;;;5000508;28;63816;-81
2022/10/14 00:41:33;;;;;;;;;6.00;4.50;;;;;;;;5002124;28;61817;-81
2022/10/14 00:43:59;;;;;;;;;6.50;4.00;;;;;;;;5002090;28;61821;-81
2022/10/14 00:46:25;;;;;;;;;4.00;4.00;;;;;;;;5002116;28;61891;-80
2022/10/14 00:48:51;;;;;;;;;3.00;3.00;;;;;;;;5001205;28;62730;-81
2022/10/14 00:51:19;;;;;;;;;5.25;3.75;;;;;;;;5005159;28;62108;-81
2022/10/14 00:53:45;;;;;;;;;5.00;4.00;;;;;;;;5023706;28;61716;-82
2022/10/14 00:56:12;;;;;;;;;3.50;3.00;;;;;;;;5041837;28;62045;-81
2022/10/14 00:58:37;;;;;;;;;6.50;5.00;;;;;;;;5022929;28;64638;-81
2022/10/14 01:01:03;;;;;;;;;4.00;4.00;;;;;;;;5023399;28;62032;-81
2022/10/14 01:03:28;;;;;;;;;4.75;4.75;;;;;;;;5028566;28;62076;-80
2022/10/14 01:06:00;;;;;;;;;4.00;4.00;;;;;;;;5041602;28;61751;-80
2022/10/14 01:08:29;;;;;;;;;4.50;3.00;;;;;;;;5040970;28;62967;-80
2022/10/14 01:11:01;;;;;;;;;6.75;3.00;;;;;;;;5041198;28;62127;-80
2022/10/14 01:13:29;;;;;;;;;2.00;2.00;;;;;;;;5041577;28;62056;-81
2022/10/14 01:16:03;;;;;;;;;4.25;4.25;;;;;;;;5041143;28;61781;-81
2022/10/14 01:18:41;;;;;;;;;2.00;2.00;;;;;;;;5022353;28;63850;-80
2022/10/14 01:21:11;;;;;;;;;3.00;2.00;;;;;;;;5041198;28;61819;-81
2022/10/14 01:23:45;;;;;;;;;2.50;1.00;;;;;;;;5041433;28;61912;-80
2022/10/14 01:26:19;;;;;;;;;6.25;2.00;;;;;;;;5041477;28;61845;-80
2022/10/14 01:29:05;;;;;;;;;1.25;1.00;;;;;;;;5040547;28;62275;-79
2022/10/14 01:31:33;;;;;;;;;2.00;2.00;;;;;;;;4942684;28;62223;-80
2022/10/14 01:34:01;;;;;;;;;1.00;1.00;;;;;;;;4943745;28;61996;-80
2022/10/14 01:36:27;;;;;;;;;1.00;1.00;;;;;;;;4928034;28;61732;-80
2022/10/14 01:39:07;;;;;;;;;0.00;0.00;;;;;;;;4943048;28;62058;-80
2022/10/14 01:41:40;;;;;;;;;2.00;1.00;;;;;;;;4927730;28;62359;-80
2022/10/14 01:44:09;;;;;;;;;3.75;0.00;;;;;;;;4943373;28;61820;-80
2022/10/14 01:46:36;;;;;;;;;1.00;1.00;;;;;;;;4943796;28;62186;-80
2022/10/14 01:49:06;;;;;;;;;1.00;1.00;;;;;;;;4942522;28;64888;-80
2022/10/14 01:51:35;;;;;;;;;1.00;1.00;;;;;;;;4943519;28;62009;-80
2022/10/14 01:54:09;;;;;;;;;1.25;1.25;;;;;;;;4943370;28;61810;-80
2022/10/14 01:56:36;;;;;;;;;1.25;1.25;;;;;;;;4943838;28;62059;-80
2022/10/14 01:59:02;;;;;;;;;1.00;1.00;;;;;;;;4942354;28;63377;-80
2022/10/14 02:01:27;;;;;;;;;1.00;1.00;;;;;;;;4943673;28;61794;-80
2022/10/14 02:03:52;;;;;;;;;3.00;2.00;;;;;;;;4927238;28;61964;-80
2022/10/14 02:06:17;;;;;;;;;2.75;1.50;;;;;;;;4957624;28;62105;-80
2022/10/14 02:08:49;;;;;;;;;1.50;1.00;;;;;;;;5006092;28;62684;-80
2022/10/14 02:11:16;;;;;;;;;1.00;1.00;;;;;;;;5026059;28;61695;-80
2022/10/14 02:13:41;;;;;;;;;3.00;1.50;;;;;;;;5043937;28;61893;-80
2022/10/14 02:16:06;;;;;;;;;1.00;1.00;;;;;;;;5044115;28;61659;-80
2022/10/14 02:18:58;;;;;;;;;1.00;1.00;;;;;;;;5025047;28;63689;-80
2022/10/14 02:21:26;;;;;;;;;2.00;1.00;;;;;;;;5002700;28;62215;-80
2022/10/14 02:23:59;;;;;;;;;1.25;1.00;;;;;;;;5043881;28;61691;-80
2022/10/14 02:26:25;;;;;;;;;3.25;2.25;;;;;;;;5043833;28;62001;-80
2022/10/14 02:28:52;;;;;;;;;1.00;1.00;;;;;;;;5025229;28;65021;-80
2022/10/14 02:31:18;;;;;;;;;2.00;1.00;;;;;;;;5025647;28;61768;-80
2022/10/14 02:33:46;;;;;;;;;2.00;1.00;;;;;;;;5025927;28;61684;-80
2022/10/14 02:36:13;;;;;;;;;2.00;2.00;;;;;;;;5043852;28;62160;-80
2022/10/14 02:38:39;;;;;;;;;0.75;0.75;;;;;;;;5043215;28;62818;-80
2022/10/14 02:41:07;;;;;;;;;2.00;1.00;;;;;;;;5043604;28;61859;-80
2022/10/14 02:43:32;;;;;;;;;2.00;1.00;;;;;;;;5024551;28;61982;-80
2022/10/14 02:46:00;;;;;;;;;1.00;1.00;;;;;;;;5043866;28;62388;-80
2022/10/14 02:48:29;;;;;;;;;3.00;1.75;;;;;;;;5042772;28;61872;-79
2022/10/14 02:50:54;;;;;;;;;1.50;1.00;;;;;;;;5043711;28;61727;-80
2022/10/14 02:53:19;;;;;;;;;1.00;1.00;;;;;;;;5043409;28;61786;-80
2022/10/14 02:55:45;;;;;;;;;1.00;1.00;;;;;;;;5043792;28;61774;-80
2022/10/14 02:58:11;;;;;;;;;1.00;0.50;;;;;;;;5042406;28;62768;-79
2022/10/14 03:00:36;;;;;;;;;2.50;2.00;;;;;;;;5043372;28;61691;-80
2022/10/14 03:03:01;;;;;;;;;1.75;0.00;;;;;;;;5043462;28;61682;-80
2022/10/14 03:05:27;;;;;;;;;0.00;0.00;;;;;;;;5043071;28;61688;-80
2022/10/14 03:07:52;;;;;;;;;1.50;1.00;;;;;;;;5024732;28;64067;-80
2022/10/14 03:10:17;;;;;;;;;1.75;1.00;;;;;;;;5043441;28;61805;-80
2022/10/14 03:12:42;;;;;;;;;1.00;1.00;;;;;;;;5043116;28;61743;-80
2022/10/14 03:15:08;;;;;;;;;2.00;2.00;;;;;;;;5043384;28;61791;-80
2022/10/14 03:17:33;;;;;;;;;0.75;0.75;;;;;;;;5024423;28;64797;-80
2022/10/14 03:19:58;;;;;;;;;3.00;1.00;;;;;;;;5042932;28;61625;-80
2022/10/14 03:22:24;;;;;;;;;3.00;1.00;;;;;;;;5024961;28;61712;-80
2022/10/14 03:24:49;;;;;;;;;1.00;1.00;;;;;;;;5025251;28;61697;-80
2022/10/14 03:27:15;;;;;;;;;1.75;1.75;;;;;;;;5041984;28;61667;-80
2022/10/14 03:29:40;;;;;;;;;2.00;0.00;;;;;;;;5024744;28;61789;-80
2022/10/14 03:32:05;;;;;;;;;4.25;1.00;;;;;;;;5043431;28;61863;-80
2022/10/14 03:34:30;;;;;;;;;0.50;0.50;;;;;;;;5042728;28;62151;-80
2022/10/14 03:36:57;;;;;;;;;0.50;0.50;;;;;;;;5042423;28;61934;-80
2022/10/14 03:39:22;;;;;;;;;4.25;1.25;;;;;;;;5025096;28;61942;-80
2022/10/14 03:41:47;;;;;;;;;2.50;1.00;;;;;;;;5024541;28;61881;-80
2022/10/14 03:44:13;;;;;;;;;0.25;0.25;;;;;;;;5042896;28;62087;-80
2022/10/14 03:46:38;;;;;;;;;1.00;1.00;;;;;;;;5042095;28;63199;-80
2022/10/14 03:49:03;;;;;;;;;1.00;1.00;;;;;;;;5042694;28;61909;-80
2022/10/14 03:51:28;;;;;;;;;1.25;1.00;;;;;;;;5024562;28;62122;-80
2022/10/14 03:53:54;;;;;;;;;0.00;0.00;;;;;;;;5041739;28;61820;-80
2022/10/14 03:56:19;;;;;;;;;1.00;1.00;;;;;;;;5041735;28;62632;-80
2022/10/14 03:58:44;;;;;;;;;1.75;1.25;;;;;;;;5042233;28;61819;-80
2022/10/14 04:01:09;;;;;;;;;2.00;0.00;;;;;;;;5042548;28;61801;-80
2022/10/14 04:03:35;;;;;;;;;1.00;1.00;;;;;;;;5030481;28;62308;-80
2022/10/14 04:06:00;;;;;;;;;1.00;0.75;;;;;;;;5031332;28;63563;-80
2022/10/14 04:08:25;;;;;;;;;2.00;1.00;;;;;;;;5042533;28;61987;-80
2022/10/14 04:10:51;;;;;;;;;1.00;1.00;;;;;;;;5024397;28;61961;-80
2022/10/14 04:13:17;;;;;;;;;2.50;1.00;;;;;;;;5024629;28;61861;-80
2022/10/14 04:15:42;;;;;;;;;3.25;1.00;;;;;;;;5041718;28;62064;-80
2022/10/14 04:18:07;;;;;;;;;1.75;0.75;;;;;;;;5042088;28;61818;-80
2022/10/14 04:20:33;;;;;;;;;2.75;1.00;;;;;;;;5041836;28;61942;-80
2022/10/14 04:22:58;;;;;;;;;2.00;1.00;;;;;;;;5042361;28;61898;-80
2022/10/14 04:25:24;;;;;;;;;1.00;1.00;;;;;;;;5041687;28;62967;-80
2022/10/14 04:27:49;;;;;;;;;1.00;1.00;;;;;;;;5041788;28;61890;-80
2022/10/14 04:30:16;;;;;;;;;1.00;1.00;;;;;;;;5024127;28;61911;-80
2022/10/14 04:32:41;;;;;;;;;0.00;0.00;;;;;;;;5024102;28;61783;-80
2022/10/14 04:35:08;;;;;;;;;1.75;0.75;;;;;;;;5041408;28;62627;-80
2022/10/14 04:37:33;;;;;;;;;1.00;1.00;;;;;;;;5041400;28;61833;-80
2022/10/14 04:39:58;;;;;;;;;2.00;1.00;;;;;;;;5041782;28;61684;-79
2022/10/14 04:42:24;;;;;;;;;1.00;1.00;;;;;;;;5041902;28;62191;-80
2022/10/14 04:44:49;;;;;;;;;1.75;1.00;;;;;;;;5023238;28;65021;-80
2022/10/14 04:47:14;;;;;;;;;1.00;1.00;;;;;;;;5041836;28;61857;-80
2022/10/14 04:49:40;;;;;;;;;0.00;0.00;;;;;;;;5022981;28;61834;-80
2022/10/14 04:52:05;;;;;;;;;1.00;1.00;;;;;;;;5041846;28;61794;-80
2022/10/14 04:54:30;;;;;;;;;1.00;1.00;;;;;;;;5040819;28;61858;-80
2022/10/14 04:56:55;;;;;;;;;1.00;1.00;;;;;;;;5023662;28;61879;-80
2022/10/14 04:59:21;;;;;;;;;3.25;1.00;;;;;;;;5023720;28;62167;-80
2022/10/14 05:01:46;;;;;;;;;1.00;1.00;;;;;;;;5023725;28;62200;-79
2022/10/14 05:04:11;;;;;;;;;3.00;1.00;;;;;;;;5044246;28;63356;-80
2022/10/14 05:06:37;;;;;;;;;1.00;1.00;;;;;;;;5044012;28;61644;-82
2022/10/14 05:09:03;;;;;;;;;0.50;0.50;;;;;;;;5026670;28;61729;-80
2022/10/14 05:11:28;;;;;;;;;1.00;1.00;;;;;;;;5047232;28;61996;-82
2022/10/14 05:13:53;;;;;;;;;1.00;1.00;;;;;;;;5027161;28;63654;-81
2022/10/14 05:16:18;;;;;;;;;1.00;1.00;;;;;;;;5027566;28;61968;-81
2022/10/14 05:18:44;;;;;;;;;1.00;1.00;;;;;;;;5044332;28;61722;-81
2022/10/14 05:21:09;;;;;;;;;1.00;1.00;;;;;;;;5045086;28;61682;-82
2022/10/14 05:23:34;;;;;;;;;2.00;1.00;;;;;;;;5043969;28;61790;-82
2022/10/14 05:25:59;;;;;;;;;1.50;1.50;;;;;;;;5025796;28;62039;-81
2022/10/14 05:28:25;;;;;;;;;3.00;1.00;;;;;;;;5044539;28;61752;-81
2022/10/14 05:30:50;;;;;;;;;1.25;1.00;;;;;;;;5048242;28;61967;-80
2022/10/14 05:33:15;;;;;;;;;0.25;0.25;;;;;;;;5029435;28;63702;-82
2022/10/14 05:35:42;;;;;;;;;1.00;1.00;;;;;;;;5009120;28;61956;-82
2022/10/14 05:38:07;;;;;;;;;3.75;1.25;;;;;;;;5024159;28;62357;-80
2022/10/14 05:40:33;;;;;;;;;3.00;2.00;;;;;;;;5042092;28;62037;-80
2022/10/14 05:42:58;;;;;;;;;1.00;1.00;;;;;;;;5023975;28;63663;-87
2022/10/14 05:45:27;;;;;;;;;3.50;2.00;;;;;;;;5042741;28;62163;-88
2022/10/14 05:47:53;;;;;;;;;1.00;1.00;;;;;;;;5025451;28;61801;-86
2022/10/14 05:50:18;;;;;;;;;1.00;1.00;;;;;;;;5043454;28;61826;-83
2022/10/14 05:52:43;;;;;;;;;2.50;1.50;;;;;;;;5023235;28;63788;-82
2022/10/14 05:55:09;;;;;;;;;3.00;3.00;;;;;;;;5016528;28;62024;-82
2022/10/14 05:57:34;;;;;;;;;2.50;2.00;;;;;;;;5025538;28;61912;-82
2022/10/14 05:59:59;;;;;;;;;3.00;1.75;;;;;;;;5044030;28;61774;-81
2022/10/14 06:02:24;;;;;;;;;1.00;1.00;;;;;;;;5025119;28;63697;-81
2022/10/14 06:04:50;;;;;;;;;2.50;1.50;;;;;;;;5044081;28;61890;-81
2022/10/14 06:07:15;;;;;;;;;3.00;3.00;;;;;;;;5043705;28;61716;-81
2022/10/14 06:09:41;;;;;;;;;1.00;1.00;;;;;;;;5044091;28;61899;-81
2022/10/14 06:12:07;;;;;;;;;3.00;2.00;;;;;;;;5025116;28;64631;-81
2022/10/14 06:14:32;;;;;;;;;1.00;1.00;;;;;;;;5025350;28;62081;-81
2022/10/14 06:16:57;;;;;;;;;2.00;2.00;;;;;;;;5042636;28;61977;-81
2022/10/14 06:19:23;;;;;;;;;4.25;2.75;;;;;;;;5043839;28;61899;-81
2022/10/14 06:21:48;;;;;;;;;2.50;2.50;;;;;;;;5024998;28;64970;-82
2022/10/14 06:24:13;;;;;;;;;3.75;2.00;;;;;;;;5025573;28;61909;-80
2022/10/14 06:26:39;;;;;;;;;4.50;3.00;;;;;;;;5024808;28;61827;-81
2022/10/14 06:29:04;;;;;;;;;3.50;2.00;;;;;;;;5043038;28;61944;-81
2022/10/14 06:31:29;;;;;;;;;4.25;2.00;;;;;;;;5025418;28;63757;-81
2022/10/14 06:33:55;;;;;;;;;4.50;2.00;;;;;;;;5043578;28;61957;-81
2022/10/14 06:36:20;;;;;;;;;4.25;2.00;;;;;;;;5043389;28;61757;-81
2022/10/14 06:38:45;;;;;;;;;4.25;4.25;;;;;;;;5025764;28;61759;-81
2022/10/14 06:41:11;;;;;;;;;3.75;3.75;;;;;;;;5042553;28;62027;-81
2022/10/14 06:43:36;;;;;;;;;3.25;2.25;;;;;;;;5025561;28;61910;-81
2022/10/14 06:46:02;;;;;;;;;4.25;4.25;;;;;;;;5024424;28;61791;-78
2022/10/14 06:48:28;;;;;;;;;4.25;3.25;;;;;;;;5021288;28;61708;-79
2022/10/14 06:50:57;;;;;;;;;2.50;2.50;;;;;;;;5042335;28;61732;-78
2022/10/14 06:53:22;;;;;;;;;8.50;5.00;;;;;;;;5042818;28;61854;-78
2022/10/14 06:55:47;;;;;;;;;4.50;1.00;;;;;;;;5043246;28;61881;-78
2022/10/14 06:58:15;;;;;;;;;3.75;1.75;;;;;;;;5043025;28;62087;-78
2022/10/14 07:00:41;;;;;;;;;4.50;4.25;;;;;;;;5042692;28;62365;-78
2022/10/14 07:03:09;;;;;;;;;4.00;3.00;;;;;;;;5045431;28;62116;-78
2022/10/14 07:05:35;;;;;;;;;4.00;3.00;;;;;;;;5042981;28;61708;-78
2022/10/14 07:08:01;;;;;;;;;2.75;2.75;;;;;;;;5025265;28;61876;-78
2022/10/14 07:10:26;;;;;;;;;1.50;1.50;;;;;;;;5042131;28;61835;-78
2022/10/14 07:12:53;;;;;;;;;3.50;2.00;;;;;;;;5022604;28;62041;-78
2022/10/14 07:15:18;;;;;;;;;3.25;3.00;;;;;;;;5042340;28;61833;-78
2022/10/14 07:17:43;;;;;;;;;2.25;2.25;;;;;;;;5042460;28;61713;-78
2022/10/14 07:20:11;;;;;;;;;2.25;1.75;;;;;;;;5041713;28;63072;-78
2022/10/14 07:22:36;;;;;;;;;2.00;2.00;;;;;;;;5023956;28;61821;-78
2022/10/14 07:25:02;;;;;;;;;1.50;1.50;;;;;;;;5024246;28;62260;-78
2022/10/14 07:27:27;;;;;;;;;2.50;2.50;;;;;;;;5024341;28;62079;-78
2022/10/14 07:29:52;;;;;;;;;2.25;2.00;;;;;;;;5023806;28;63459;-78
2022/10/14 07:32:18;;;;;;;;;3.75;2.00;;;;;;;;5041288;28;61845;-78
2022/10/14 07:34:43;;;;;;;;;2.00;2.00;;;;;;;;5042130;28;61968;-78
2022/10/14 07:37:08;;;;;;;;;1.00;1.00;;;;;;;;5024600;28;62046;-78
2022/10/14 07:39:33;;;;;;;;;3.00;1.00;;;;;;;;5023823;28;63568;-78
2022/10/14 07:41:59;;;;;;;;;3.75;3.75;;;;;;;;5023918;28;61890;-78
2022/10/14 07:44:24;;;;;;;;;2.00;2.00;;;;;;;;5023184;28;61916;-78
2022/10/14 07:46:49;;;;;;;;;2.00;2.00;;;;;;;;5042012;28;61879;-78
2022/10/14 07:49:18;;;;;;;;;1.00;1.00;;;;;;;;5040740;28;62621;-78
2022/10/14 07:51:44;;;;;;;;;1.75;1.00;;;;;;;;5024039;28;62093;-78
2022/10/14 07:54:14;;;;;;;;;1.00;1.00;;;;;;;;5042143;28;62009;-78
2022/10/14 07:56:40;;;;;;;;;3.00;1.00;;;;;;;;5039962;28;62076;-78
2022/10/14 07:59:05;;;;;;;;;4.25;3.00;;;;;;;;5041342;28;61866;-78
2022/10/14 08:01:31;;;;;;;;;1.00;1.00;;;;;;;;5042177;28;61893;-78
2022/10/14 08:03:56;;;;;;;;;1.00;1.00;;;;;;;;5027515;28;62071;-78
2022/10/14 08:06:21;;;;;;;;;2.00;1.00;;;;;;;;5042722;28;61899;-78
2022/10/14 08:08:47;;;;;;;;;1.00;1.00;;;;;;;;5023566;28;64814;-78
2022/10/14 08:11:14;;;;;;;;;2.00;0.25;;;;;;;;5024533;28;61959;-78
2022/10/14 08:13:39;;;;;;;;;1.75;0.25;;;;;;;;5042127;28;61875;-78
2022/10/14 08:16:15;;;;;;;;;1.00;1.00;;;;;;;;5024402;28;62236;-78
2022/10/14 08:18:40;;;;;;;;;0.00;0.00;;;;;;;;5022563;28;63659;-78
2022/10/14 08:21:05;;;;;;;;;2.75;0.75;;;;;;;;5042073;28;61988;-78
2022/10/14 08:23:31;;;;;;;;;1.00;1.00;;;;;;;;5042038;28;62056;-78
2022/10/14 08:25:57;;;;;;;;;1.50;1.00;;;;;;;;5024558;28;61897;-78
2022/10/14 08:28:22;;;;;;;;;1.00;1.00;;;;;;;;5023380;28;64973;-78
2022/10/14 08:30:47;;;;;;;;;1.00;1.00;;;;;;;;5041717;28;61943;-78
2022/10/14 08:33:13;;;;;;;;;1.25;1.25;;;;;;;;5041816;28;61960;-78
2022/10/14 08:35:38;;;;;;;;;1.00;1.00;;;;;;;;5042060;28;61770;-78
2022/10/14 08:38:03;;;;;;;;;2.00;1.00;;;;;;;;5041236;28;62509;-78
2022/10/14 08:40:32;;;;;;;;;3.00;1.00;;;;;;;;5024794;28;61798;-78
2022/10/14 08:43:14;;;;;;;;;1.00;1.00;;;;;;;;5045373;28;61950;-78
2022/10/14 08:45:46;;;;;;;;;1.00;1.00;;;;;;;;5045325;28;61915;-78
2022/10/14 08:48:15;;;;;;;;;3.50;1.50;;;;;;;;5026788;28;63850;-77
2022/10/14 08:50:45;;;;;;;;;4.75;2.00;;;;;;;;5045413;28;61795;-77
2022/10/14 08:53:12;;;;;;;;;1.00;1.00;;;;;;;;5006860;28;62079;-77
2022/10/14 08:55:39;;;;;;;;;2.00;1.25;;;;;;;;5005479;28;61894;-77
2022/10/14 08:58:10;;;;;;;;;2.25;2.00;;;;;;;;5004684;28;61740;-77
2022/10/14 09:00:35;;;;;;;;;1.00;1.00;;;;;;;;5005128;28;61665;-76
2022/10/14 09:03:03;;;;;;;;;2.00;2.00;;;;;;;;5004593;28;61822;-77
2022/10/14 09:05:29;;;;;;;;;4.00;1.25;;;;;;;;5004144;28;62042;-77
2022/10/14 09:07:55;;;;;;;;;1.00;1.00;;;;;;;;5003778;28;62389;-77
2022/10/14 09:10:28;;;;;;;;;3.25;1.00;;;;;;;;5004995;28;61800;-77
2022/10/14 09:12:55;;;;;;;;;2.25;1.00;;;;;;;;5004969;28;61673;-77
2022/10/14 09:15:25;;;;;;;;;1.00;1.00;;;;;;;;5005063;28;61784;-77
2022/10/14 09:18:12;;;;;;;;;1.75;0.00;;;;;;;;5004188;28;62783;-76
2022/10/14 09:20:40;;;;;;;;;2.00;2.00;;;;;;;;5003442;28;61873;-77
2022/10/14 09:23:09;;;;;;;;;1.00;1.00;;;;;;;;5003687;28;61822;-77
2022/10/14 09:25:36;;;;;;;;;1.00;1.00;;;;;;;;5004911;28;62546;-77
2022/10/14 09:28:03;;;;;;;;;2.75;2.00;;;;;;;;5002618;28;64610;-77
2022/10/14 09:30:32;;;;;;;;;1.00;0.00;;;;;;;;5004139;28;61808;-77
2022/10/14 09:32:59;;;;;;;;;1.00;1.00;;;;;;;;5001802;28;61702;-77
2022/10/14 09:35:27;;;;;;;;;2.00;1.00;;;;;;;;5004973;28;61764;-77
2022/10/14 09:37:53;;;;;;;;;2.00;2.00;;;;;;;;5003847;28;62068;-77
2022/10/14 09:40:34;;;;;;;;;2.00;2.00;;;;;;;;5004813;28;62018;-77
2022/10/14 09:43:13;;;;;;;;;1.50;1.00;;;;;;;;5004242;28;61733;-77
2022/10/14 09:45:48;;;;;;;;;3.00;1.25;;;;;;;;5004635;28;61796;-77
2022/10/14 09:48:15;;;;;;;;;0.75;0.75;;;;;;;;5014795;28;61705;-77
2022/10/14 09:50:42;;;;;;;;;2.00;2.00;;;;;;;;5004469;28;61733;-78
2022/10/14 09:53:34;;;;;;;;;2.25;1.75;;;;;;;;5002709;28;61892;-77
2022/10/14 09:56:01;;;;;;;;;3.00;1.50;;;;;;;;4999275;28;61919;-77
2022/10/14 09:58:34;;;;;;;;;0.00;0.00;;;;;;;;5003304;28;63959;-77
2022/10/14 10:01:00;;;;;;;;;2.00;1.25;;;;;;;;5004229;28;62047;-77
2022/10/14 10:03:26;;;;;;;;;3.00;3.00;;;;;;;;5004245;28;62064;-77
2022/10/14 10:06:00;;;;;;;;;1.25;1.25;;;;;;;;5003713;28;62113;-77
2022/10/14 10:08:25;;;;;;;;;3.00;2.00;;;;;;;;5000655;28;62130;-77
2022/10/14 10:10:59;;;;;;;;;2.75;2.00;;;;;;;;5004414;28;61926;-77
2022/10/14 10:13:38;;;;;;;;;1.75;1.00;;;;;;;;5011766;28;62109;-78
2022/10/14 10:16:05;;;;;;;;;2.00;1.00;;;;;;;;5011610;28;61766;-78
2022/10/14 10:18:30;;;;;;;;;3.00;3.00;;;;;;;;5008859;28;64925;-78
2022/10/14 10:21:06;;;;;;;;;2.67;2.00;;;;;;;;5012376;28;61755;-79
2022/10/14 10:23:35;;;;;;;;;2.00;2.00;;;;;;;;5013877;28;61974;-79
2022/10/14 10:26:21;;;;;;;;;2.00;2.00;;;;;;;;5009983;28;62686;-79
2022/10/14 10:28:47;;;;;;;;;2.25;2.25;;;;;;;;5012715;28;62092;-79
2022/10/14 10:31:13;;;;;;;;;7.25;6.25;;;;;;;;5013031;28;62022;-79
2022/10/14 10:33:45;;;;;;;;;5.00;5.00;;;;;;;;5011421;28;61950;-79
2022/10/14 10:36:11;;;;;;;;;2.00;2.00;;;;;;;;5011604;28;61961;-79
2022/10/14 10:38:44;;;;;;;;;2.67;2.00;;;;;;;;5010948;28;61785;-79
2022/10/14 10:41:15;;;;;;;;;1.00;1.00;;;;;;;;5014228;28;61827;-79
2022/10/14 10:43:49;;;;;;;;;1.67;1.00;;;;;;;;5009017;28;61982;-78
2022/10/14 10:46:30;;;;;;;;;0.00;0.00;;;;;;;;5002229;28;62178;-77
2022/10/14 10:49:04;;;;;;;;;0.00;0.00;;;;;;;;5001441;28;63664;-78
2022/10/14 10:51:37;;;;;;;;;1.00;1.00;;;;;;;;5008338;28;61743;-77
2022/10/14 10:54:03;;;;;;;;;0.00;0.00;;;;;;;;5024369;28;61937;-78
2022/10/14 10:56:30;;;;;;;;;0.00;0.00;;;;;;;;5024818;28;62051;-78
2022/10/14 10:59:05;;;;;;;;;1.00;1.00;;;;;;;;5024050;28;63740;-78
2022/10/14 11:01:48;;;;;;;;;0.00;0.00;;;;;;;;5025160;28;61874;-79
2022/10/14 11:04:33;;;;;;;;;1.00;1.00;;;;;;;;5042093;28;61886;-78
2022/10/14 11:13:33;;;;;;;;;0.00;0.00;;;;;;;;4938788;28;61997;-78
2022/10/14 11:16:08;;;;;;;;;0.00;0.00;;;;;;;;4936595;28;62215;-77
2022/10/14 11:18:36;;;;;;;;;0.00;0.00;;;;;;;;4916547;28;62076;-77
2022/10/14 11:21:12;;;;;;;;;0.00;0.00;;;;;;;;4915220;28;64217;-77
2022/10/14 11:23:40;;;;;;;;;0.00;0.00;;;;;;;;4918396;28;61981;-78
2022/10/14 11:26:23;;;;;;;;;1.00;0.33;;;;;;;;4936903;28;62167;-77
2022/10/14 11:28:53;;;;;;;;;0.00;0.00;;;;;;;;4933186;28;61970;-77
2022/10/14 11:31:25;;;;;;;;;0.00;0.00;;;;;;;;4931134;28;62264;-79
2022/10/14 11:33:53;;;;;;;;;0.00;0.00;;;;;;;;4931554;28;62096;-79
2022/10/14 11:36:44;;;;;;;;;0.00;0.00;;;;;;;;4931085;28;61889;-80
2022/10/14 11:39:25;;;;;;;;;1.00;0.00;;;;;;;;4932688;28;61866;-80
2022/10/14 11:42:29;;;;;;;;;0.00;0.00;;;;;;;;4936470;28;63824;-79
2022/10/14 11:45:09;;;;;;;;;0.33;0.00;;;;;;;;4951911;28;62282;-79
2022/10/14 11:47:35;;;;;;;;;0.00;0.00;;;;;;;;4970177;28;61957;-79
2022/10/14 11:50:04;;;;;;;;;0.00;0.00;;;;;;;;4959950;28;61977;-79
2022/10/14 11:52:36;;;;;;;;;2.00;0.00;;;;;;;;4959144;28;62094;-79
2022/10/14 11:55:02;;;;;;;;;0.00;0.00;;;;;;;;4953670;28;62083;-79
2022/10/14 11:57:31;;;;;;;;;1.00;1.00;;;;;;;;4951390;28;62074;-80
2022/10/14 12:00:00;;;;;;;;;1.00;1.00;;;;;;;;4959963;28;61987;-79
2022/10/14 12:02:44;;;;;;;;;1.33;1.33;;;;;;;;4957551;28;62376;-80
2022/10/14 12:05:19;;;;;;;;;0.67;0.67;;;;;;;;4963060;28;62389;-78
2022/10/14 12:08:11;;;;;;;;;1.50;0.50;;;;;;;;4959850;28;61911;-80
2022/10/14 12:10:44;;;;;;;;;1.67;1.00;;;;;;;;4949932;28;62322;-80
2022/10/14 12:13:12;;;;;;;;;1.00;1.00;;;;;;;;4967571;28;62569;-80
2022/10/14 12:15:39;;;;;;;;;1.00;1.00;;;;;;;;4997400;28;61973;-80
2022/10/14 12:18:05;;;;;;;;;0.00;0.00;;;;;;;;5041493;28;61987;-79
2022/10/14 12:20:36;;;;;;;;;0.00;0.00;;;;;;;;5045256;28;61802;-80
2022/10/14 12:23:04;;;;;;;;;0.00;0.00;;;;;;;;5029529;28;64815;-79
2022/10/14 12:25:35;;;;;;;;;0.00;0.00;;;;;;;;5049720;28;62200;-79
2022/10/14 12:28:05;;;;;;;;;0.00;0.00;;;;;;;;5047297;28;61687;-79
2022/10/14 12:30:30;;;;;;;;;0.00;0.00;;;;;;;;5031525;28;61720;-79
2022/10/14 12:33:06;;;;;;;;;1.33;0.00;;;;;;;;5032595;28;63717;-79
2022/10/14 12:35:46;;;;;;;;;0.00;0.00;;;;;;;;5033048;28;61780;-79
2022/10/14 12:38:11;;;;;;;;;0.00;0.00;;;;;;;;5032302;28;61997;-79
2022/10/14 12:40:38;;;;;;;;;0.00;0.00;;;;;;;;5048423;28;61873;-79
2022/10/14 12:43:23;;;;;;;;;1.00;0.00;;;;;;;;5050023;28;62052;-79
2022/10/14 12:46:09;;;;;;;;;1.00;1.00;;;;;;;;5032295;28;61838;-79
2022/10/14 12:48:37;;;;;;;;;0.67;0.67;;;;;;;;5040884;28;63180;-79
2022/10/14 12:51:08;;;;;;;;;0.00;0.00;;;;;;;;5054900;28;61770;-79
2022/10/14 12:53:35;;;;;;;;;1.00;1.00;;;;;;;;5041722;28;61726;-79
2022/10/14 12:56:01;;;;;;;;;1.33;1.00;;;;;;;;5028153;28;61837;-79
2022/10/14 12:58:27;;;;;;;;;1.00;1.00;;;;;;;;5033344;28;62161;-79
2022/10/14 13:00:54;;;;;;;;;2.33;1.33;;;;;;;;5053524;28;61829;-79
2022/10/14 13:03:22;;;;;;;;;2.00;1.00;;;;;;;;5054145;28;61894;-79
2022/10/14 13:05:47;;;;;;;;;2.00;2.00;;;;;;;;5028384;28;61937;-80
2022/10/14 13:08:19;;;;;;;;;1.00;1.00;;;;;;;;5051482;28;61976;-79
2022/10/14 13:10:53;;;;;;;;;3.75;3.00;;;;;;;;5039748;28;62144;-79
2022/10/14 13:13:37;;;;;;;;;4.75;2.50;;;;;;;;5031144;28;64104;-79
2022/10/14 13:16:06;;;;;;;;;0.67;0.67;;;;;;;;5045550;28;61759;-79
2022/10/14 13:18:37;;;;;;;;;2.75;2.75;;;;;;;;5039396;28;62201;-79
2022/10/14 13:21:04;;;;;;;;;7.25;3.00;;;;;;;;5018802;28;62143;-79
2022/10/14 13:23:30;;;;;;;;;2.75;2.00;;;;;;;;5039297;28;62841;-79
2022/10/14 13:26:14;;;;;;;;;2.00;2.00;;;;;;;;5022405;28;61788;-79
2022/10/14 13:28:46;;;;;;;;;2.50;2.50;;;;;;;;5043776;28;61944;-78
2022/10/14 13:31:18;;;;;;;;;3.00;3.00;;;;;;;;5044394;28;61818;-79
2022/10/14 13:33:49;;;;;;;;;3.00;3.00;;;;;;;;5042870;28;62219;-78
2022/10/14 13:36:20;;;;;;;;;4.50;2.25;;;;;;;;5043613;28;62016;-78
2022/10/14 13:38:56;;;;;;;;;0.00;0.00;;;;;;;;5040420;28;61812;-79
2022/10/14 13:41:25;;;;;;;;;1.00;1.00;;;;;;;;5024474;28;61930;-79
2022/10/14 13:43:53;;;;;;;;;2.00;2.00;;;;;;;;5041714;28;61820;-79
2022/10/14 13:46:22;;;;;;;;;3.00;3.00;;;;;;;;5042762;28;62056;-79
2022/10/14 13:48:51;;;;;;;;;5.00;2.00;;;;;;;;5023434;28;61957;-78
2022/10/14 13:51:24;;;;;;;;;3.00;2.00;;;;;;;;5040639;28;61942;-79
2022/10/14 13:53:59;;;;;;;;;1.25;1.25;;;;;;;;5024696;28;64851;-78
2022/10/14 13:56:26;;;;;;;;;2.75;1.50;;;;;;;;5040752;28;62324;-77
2022/10/14 13:58:52;;;;;;;;;2.25;1.00;;;;;;;;5042154;28;61752;-77
2022/10/14 14:01:22;;;;;;;;;1.75;1.75;;;;;;;;5042010;28;61981;-77
2022/10/14 14:03:55;;;;;;;;;2.75;2.75;;;;;;;;5041192;28;62849;-77
2022/10/14 14:06:22;;;;;;;;;2.00;2.00;;;;;;;;5022448;28;61935;-77
2022/10/14 14:08:55;;;;;;;;;4.33;2.33;;;;;;;;5041555;28;61853;-77
2022/10/14 14:11:28;;;;;;;;;3.00;3.00;;;;;;;;5040570;28;61730;-78
2022/10/14 14:13:59;;;;;;;;;4.00;3.00;;;;;;;;5023422;28;65333;-77
2022/10/14 14:16:28;;;;;;;;;3.00;3.00;;;;;;;;5050288;28;61881;-77
2022/10/14 14:18:53;;;;;;;;;5.75;3.75;;;;;;;;5033534;28;61948;-77
2022/10/14 14:21:23;;;;;;;;;2.00;2.00;;;;;;;;5050725;28;61744;-77
2022/10/14 14:23:53;;;;;;;;;3.00;3.00;;;;;;;;5044430;28;61976;-77
2022/10/14 14:26:19;;;;;;;;;3.75;3.75;;;;;;;;5024568;28;61921;-77
2022/10/14 14:28:48;;;;;;;;;6.00;5.00;;;;;;;;5042408;28;62101;-76
2022/10/14 14:31:14;;;;;;;;;6.00;3.00;;;;;;;;5042902;28;61864;-77
2022/10/14 14:33:39;;;;;;;;;4.50;2.75;;;;;;;;5040811;28;61801;-77
2022/10/14 14:36:08;;;;;;;;;2.00;2.00;;;;;;;;5035324;28;62207;-77
2022/10/14 14:38:35;;;;;;;;;2.00;2.00;;;;;;;;5017640;28;62098;-77
2022/10/14 14:41:05;;;;;;;;;3.33;2.00;;;;;;;;5023586;28;61982;-77
2022/10/14 14:43:32;;;;;;;;;1.75;1.00;;;;;;;;5043524;28;62835;-77
2022/10/14 14:45:59;;;;;;;;;2.00;2.00;;;;;;;;5029708;28;61864;-77
2022/10/14 14:48:25;;;;;;;;;3.00;3.00;;;;;;;;5034029;28;62143;-77
2022/10/14 14:50:52;;;;;;;;;3.25;3.25;;;;;;;;5051560;28;61693;-77
2022/10/14 14:53:33;;;;;;;;;3.50;2.75;;;;;;;;5054215;28;63420;-77
2022/10/14 14:55:59;;;;;;;;;4.00;2.50;;;;;;;;5032119;28;61975;-76